Latest Weather Observations for Red Rocks Point

IDW60801

Issued at 4:04 pm WST Sunday 24 January 2021 (issued every 10 minutes, with the page automatically refreshed every 10 minutes)

About weather observations | Map of weather stations | Latest weather observations for WA | Other Formats
Station Details ID: 011053 Name: RED ROCKS POINT Lat: -32.20 Lon: 127.53 Height: 3.1 m
Data from the previous 72 hours. | See also: Recent months at Red Rocks Point
Date/Time
WST
Temp
°C
App
Temp
°C
Dew
Point
°C
Rel
Hum
%
Delta-T
°C
Wind Press
QNH
hPa
Press
MSL
hPa
Rain since
9am
mm
Dir  Spd
km/h
Gust
km/h
Spd
kts
Gust
kts
24/04:00pm 26.9 - - - - SE 13 20 7 11 1000.3 1000.3 -
24/03:30pm 27.4 - - - - SE 9 13 5 7 1000.6 1000.6 -
24/03:00pm 27.1 - - - - ESE 15 24 8 13 1001.1 1001.1 -
24/02:30pm 27.0 - - - - E 17 20 9 11 1001.5 1001.5 -
24/02:00pm 26.5 - - - - E 15 17 8 9 1001.9 1001.9 -
24/01:30pm 26.3 - - - - E 20 24 11 13 1002.2 1002.2 -
24/01:00pm 27.6 - - - - E 26 30 14 16 1002.5 1002.5 -
24/12:30pm 29.3 - - - - ENE 26 41 14 22 1002.9 1002.9 -
24/12:00pm 29.5 - - - - NE 37 48 20 26 1003.3 1003.3 -
24/11:54am 30.0 - - - - NE 37 50 20 27 1003.2 1003.2 -
24/11:30am 31.2 - - - - NNE 33 48 18 26 1003.0 1003.0 -
24/11:00am 30.2 - - - - NE 30 44 16 24 1003.1 1003.1 -
24/10:30am 27.5 - - - - E 19 30 10 16 1003.1 1003.1 -
24/10:25am 30.7 - - - - NNE 19 30 10 16 1002.9 1002.9 -
24/10:08am 36.5 - - - - N 20 35 11 19 1002.9 1002.9 -
24/10:00am 36.5 - - - - N 17 28 9 15 1003.0 1003.0 -
24/09:30am 35.5 - - - - NNE 24 37 13 20 1003.4 1003.4 -
24/09:00am 32.9 - - - - ENE 9 17 5 9 1003.5 1003.5 -
24/08:30am 29.5 - - - - E 11 11 6 6 1003.9 1003.9 -
24/08:00am 27.4 - - - - ENE 7 13 4 7 1004.2 1004.2 -
24/07:30am 25.5 - - - - CALM 0 0 0 0 1004.2 1004.2 -
24/07:00am 26.0 - - - - CALM 0 0 0 0 1004.0 1004.0 -
24/06:30am 25.8 - - - - CALM 0 0 0 0 1003.5 1003.5 -
24/06:00am 25.3 - - - - CALM 0 0 0 0 1003.3 1003.3 -
24/05:30am 25.1 - - - - NNW 6 9 3 5 1003.0 1003.0 -
24/05:00am 24.8 - - - - NW 7 9 4 5 1002.8 1002.8 -
24/04:30am 25.2 - - - - NW 11 15 6 8 1002.3 1002.3 -
24/04:00am 25.6 - - - - NNW 13 15 7 8 1002.3 1002.3 -
24/03:30am 25.8 - - - - NNW 11 15 6 8 1002.2 1002.2 -
24/03:00am 26.2 - - - - N 13 17 7 9 1002.4 1002.4 -
24/02:30am 26.6 - - - - N 15 20 8 11 1002.2 1002.2 -
24/02:00am 26.8 - - - - NNE 19 26 10 14 1002.4 1002.4 -
24/01:30am 26.6 - - - - NNE 17 24 9 13 1002.4 1002.4 -
24/01:00am 25.0 - - - - CALM 0 9 0 5 1002.3 1002.3 -
24/12:30am 25.4 - - - - NE 9 11 5 6 1002.6 1002.6 -
24/12:00am 26.7 - - - - NNE 13 20 7 11 1002.8 1002.8 -
 
Date/Time
WST
Temp
°C
App
Temp
°C
Dew
Point
°C
Rel
Hum
%
Delta-T
°C
Wind Press
QNH
hPa
Press
MSL
hPa
Rain since
9am
mm
Dir  Spd
km/h
Gust
km/h
Spd
kts
Gust
kts
23/11:30pm 25.3 - - - - ENE 13 17 7 9 1003.3 1003.3 -
23/11:00pm 27.1 - - - - NNE 11 17 6 9 1004.2 1004.2 -
23/10:30pm 25.9 - - - - CALM 0 6 0 3 1004.8 1004.8 -
23/10:00pm 27.6 - - - - NE 11 17 6 9 1004.8 1004.8 -
23/09:30pm 28.3 - - - - NE 17 22 9 12 1004.9 1004.9 -
23/09:00pm 28.2 - - - - NE 20 28 11 15 1005.2 1005.2 -
23/08:30pm 26.0 - - - - ENE 20 24 11 13 1005.0 1005.0 -
23/08:00pm 25.6 - - - - ENE 28 35 15 19 1004.7 1004.7 -
23/07:30pm 26.6 - - - - ENE 19 35 10 19 1004.8 1004.8 -
23/07:00pm 30.7 - - - - NE 11 13 6 7 1004.1 1004.1 -
23/06:30pm 31.6 - - - - N 9 15 5 8 1003.7 1003.7 -
23/06:00pm 32.3 - - - - NNW 13 20 7 11 1003.7 1003.7 -
23/05:30pm 32.7 - - - - NNW 13 20 7 11 1003.7 1003.7 -
23/05:00pm 33.3 - - - - NW 20 33 11 18 1003.8 1003.8 -
23/04:30pm 34.3 - - - - NNW 24 37 13 20 1003.6 1003.6 -
23/04:00pm 34.1 - - - - NNW 24 39 13 21 1003.4 1003.4 -
23/03:30pm 34.7 - - - - NW 28 48 15 26 1003.7 1003.7 -
23/03:29pm 34.8 - - - - NNW 28 48 15 26 1003.7 1003.7 -
23/03:00pm 35.0 - - - - NNW 19 30 10 16 1003.7 1003.7 -
23/02:30pm 34.9 - - - - NW 24 35 13 19 1003.9 1003.9 -
23/02:00pm 35.6 - - - - NW 20 32 11 17 1003.8 1003.8 -
23/01:30pm 35.8 - - - - NW 22 44 12 24 1003.5 1003.5 -
23/01:00pm 36.4 - - - - NW 17 28 9 15 1003.2 1003.2 -
23/12:30pm 37.0 - - - - NW 20 32 11 17 1003.4 1003.4 -
23/12:00pm 36.9 - - - - NW 22 35 12 19 1003.4 1003.4 -
23/11:30am 37.5 - - - - WNW 24 39 13 21 1003.5 1003.5 -
23/11:00am 37.7 - - - - WNW 22 39 12 21 1003.6 1003.6 -
23/10:30am 39.1 - - - - WNW 24 35 13 19 1003.7 1003.7 -
23/10:00am 39.0 - - - - WNW 19 35 10 19 1003.8 1003.8 -
23/09:30am 38.8 - - - - WNW 20 35 11 19 1004.0 1004.0 -
23/09:00am 34.8 - - - - NW 17 24 9 13 1004.2 1004.2 -
23/08:30am 35.8 - - - - NW 17 30 9 16 1004.1 1004.1 -
23/08:00am 34.1 - - - - NNW 15 20 8 11 1003.9 1003.9 -
23/07:30am 31.5 - - - - N 13 19 7 10 1003.6 1003.6 -
23/07:00am 27.1 - - - - NE 7 11 4 6 1003.5 1003.5 -
23/06:30am 28.7 - - - - E 7 11 4 6 1003.4 1003.4 -
23/06:00am 27.6 - - - - NE 6 11 3 6 1003.5 1003.5 -
23/05:30am 24.0 - - - - N 11 17 6 9 1003.7 1003.7 -
23/05:00am 22.0 - - - - N 15 20 8 11 1003.6 1003.6 -
23/04:30am 21.4 - - - - CALM 0 0 0 0 1003.2 1003.2 -
23/04:00am 21.7 - - - - NE 11 17 6 9 1003.2 1003.2 -
23/03:30am 21.4 - - - - NNE 7 11 4 6 1003.2 1003.2 -
23/03:00am 21.9 - - - - N 11 17 6 9 1003.4 1003.4 -
23/02:30am 21.9 - - - - NNE 11 17 6 9 1003.4 1003.4 -
23/02:00am 22.1 - - - - ENE 20 26 11 14 1002.4 1002.4 -
23/01:30am 22.0 - - - - ENE 15 20 8 11 1002.4 1002.4 -
23/01:00am 21.7 - - - - ESE 13 15 7 8 1002.2 1002.2 -
23/12:30am 21.9 - - - - E 17 20 9 11 1002.8 1002.8 -
23/12:00am 22.0 - - - - ESE 19 28 10 15 1002.8 1002.8 -
 
Date/Time
WST
Temp
°C
App
Temp
°C
Dew
Point
°C
Rel
Hum
%
Delta-T
°C
Wind Press
QNH
hPa
Press
MSL
hPa
Rain since
9am
mm
Dir  Spd
km/h
Gust
km/h
Spd
kts
Gust
kts
22/11:30pm 22.2 - - - - E 19 24 10 13 1003.2 1003.2 -
22/11:00pm 22.3 - - - - E 19 22 10 12 1003.8 1003.8 -
22/10:30pm 22.5 - - - - E 22 26 12 14 1004.1 1004.1 -
22/10:00pm 22.7 - - - - ENE 24 32 13 17 1004.4 1004.4 -
22/09:30pm 22.8 - - - - E 20 24 11 13 1003.9 1003.9 -
22/09:00pm 22.3 - - - - ENE 13 20 7 11 1004.1 1004.1 -
22/08:30pm 22.2 - - - - E 24 35 13 19 1003.8 1003.8 -
22/08:00pm 22.1 - - - - E 26 32 14 17 1003.7 1003.7 -
22/07:30pm 21.9 - - - - ENE 26 33 14 18 1005.4 1005.4 -
22/07:00pm 22.0 - - - - E 24 30 13 16 1004.0 1004.0 -
22/06:30pm 22.0 - - - - E 24 30 13 16 1003.6 1003.6 -
22/06:00pm 22.2 - - - - E 24 28 13 15 1003.5 1003.5 -
22/05:30pm 22.2 - - - - E 20 26 11 14 1003.5 1003.5 -
22/05:00pm 22.8 - - - - E 22 26 12 14 1003.6 1003.6 -
22/04:30pm 23.7 - - - - E 24 28 13 15 1003.3 1003.3 -
22/04:00pm 24.6 - - - - ESE 20 24 11 13 1003.7 1003.7 -
22/03:30pm 23.8 - - - - E 22 26 12 14 1004.1 1004.1 -
22/03:00pm 24.9 - - - - E 26 30 14 16 1004.4 1004.4 -
22/02:30pm 25.0 - - - - E 26 28 14 15 1004.7 1004.7 -
22/02:00pm 25.5 - - - - E 26 30 14 16 1005.0 1005.0 -
22/01:30pm 25.5 - - - - E 30 35 16 19 1005.4 1005.4 -
22/01:00pm 25.9 - - - - E 30 35 16 19 1005.8 1005.8 -
22/12:30pm 25.8 - - - - ESE 26 32 14 17 1006.4 1006.4 -
22/12:00pm 26.4 - - - - ESE 26 33 14 18 1006.6 1006.6 -
22/11:30am 26.7 - - - - ESE 26 32 14 17 1007.3 1007.3 -
22/11:00am 26.9 - - - - ESE 24 30 13 16 1007.7 1007.7 -
22/10:30am 26.6 - - - - ESE 24 30 13 16 1007.8 1007.8 -
22/10:00am 26.3 - - - - E 24 28 13 15 1008.3 1008.3 -
22/09:30am 26.0 - - - - E 24 30 13 16 1008.5 1008.5 -
22/09:00am 25.3 - - - - E 26 30 14 16 1008.6 1008.6 -
22/08:30am 25.1 - - - - E 28 32 15 17 1009.0 1009.0 -
22/08:00am 25.2 - - - - ESE 26 32 14 17 1009.2 1009.2 -
22/07:30am 25.1 - - - - ESE 24 30 13 16 1009.4 1009.4 -
22/07:00am 23.1 - - - - E 30 33 16 18 1009.3 1009.3 -
22/06:30am 21.2 - - - - E 24 26 13 14 1009.5 1009.5 -
22/06:00am 22.3 - - - - ESE 24 28 13 15 1009.4 1009.4 -
22/05:30am 21.1 - - - - ESE 24 28 13 15 1009.1 1009.1 -
22/05:00am 20.6 - - - - ESE 24 30 13 16 1008.8 1008.8 -
22/04:30am 20.5 - - - - ESE 22 28 12 15 1008.7 1008.7 -
22/04:00am 20.4 - - - - ESE 20 26 11 14 1008.7 1008.7 -
22/03:30am 20.4 - - - - SE 19 20 10 11 1008.8 1008.8 -
22/03:00am 20.5 - - - - SE 22 26 12 14 1008.6 1008.6 -
22/02:30am 20.6 - - - - SE 19 22 10 12 1008.8 1008.8 -
22/02:00am 20.8 - - - - E 19 22 10 12 1008.5 1008.5 -
22/01:30am 20.8 - - - - E 20 22 11 12 1008.5 1008.5 -
22/01:00am 20.9 - - - - E 20 24 11 13 1008.4 1008.4 -
22/12:30am 21.1 - - - - E 22 28 12 15 1008.8 1008.8 -
22/12:00am 21.0 - - - - E 24 28 13 15 1008.8 1008.8 -
 
Date/Time
WST
Temp
°C
App
Temp
°C
Dew
Point
°C
Rel
Hum
%
Delta-T
°C
Wind Press
QNH
hPa
Press
MSL
hPa
Rain since
9am
mm
Dir  Spd
km/h
Gust
km/h
Spd
kts
Gust
kts
21/11:30pm 21.2 - - - - E 28 35 15 19 1008.9 1008.9 -
21/11:00pm 21.3 - - - - E 30 35 16 19 1009.1 1009.1 -
21/10:30pm 21.2 - - - - E 30 35 16 19 1009.3 1009.3 -
21/10:00pm 21.2 - - - - E 30 35 16 19 1009.5 1009.5 -
21/09:30pm 21.0 - - - - E 28 33 15 18 1009.4 1009.4 -
21/09:00pm 21.0 - - - - E 32 37 17 20 1009.3 1009.3 -
21/08:30pm 21.1 - - - - ESE 32 35 17 19 1009.1 1009.1 -
21/08:00pm 21.2 - - - - E 32 37 17 20 1008.6 1008.6 -
21/07:30pm 21.3 - - - - E 30 35 16 19 1008.5 1008.5 -
21/07:00pm 21.4 - - - - E 26 32 14 17 1008.4 1008.4 -
21/06:30pm 21.6 - - - - E 26 30 14 16 1008.5 1008.5 -
21/06:00pm 22.1 - - - - E 28 32 15 17 1008.1 1008.1 -
21/05:30pm 22.6 - - - - E 24 28 13 15 1008.2 1008.2 -
21/05:00pm 23.2 - - - - E 20 24 11 13 1008.6 1008.6 -
21/04:30pm 23.9 - - - - E 19 20 10 11 1008.6 1008.6 -

Other formats

Comma delimited format used in spreadsheet applications
http://www.bom.gov.au/fwo/IDW60801/IDW60801.94644.axf

JavaScript Object Notation format (JSON) in row-major order
http://www.bom.gov.au/fwo/IDW60801/IDW60801.94644.json

Data quality

Most of these data are generated automatically and are frequently updated. Quality checks on data are not normally performed. It is possible for incorrect values to appear. Refer to information at About Latest Weather Observations and please check the disclaimer before using these data.